createdAt,value
2022-08-16T00:02:31.401Z,73.73
2022-08-16T00:04:59.902Z,74.12
2022-08-16T00:07:29.193Z,74.41
2022-08-16T00:09:58.796Z,74.84
2022-08-16T00:12:28.013Z,74.98
2022-08-16T00:14:56.429Z,75.16
2022-08-16T00:17:23.877Z,75.37
2022-08-16T00:19:53.489Z,75.59
2022-08-16T00:22:25.124Z,75.22
2022-08-16T00:24:53.474Z,75.62
2022-08-16T00:27:21.592Z,75.89
2022-08-16T00:29:48.371Z,75.82
2022-08-16T00:32:32.990Z,75.89
2022-08-16T00:35:01.722Z,75.53
2022-08-16T00:37:57.451Z,74.68
2022-08-16T00:40:33.769Z,74.94
2022-08-16T00:43:04.669Z,74.91
2022-08-16T00:45:57.840Z,75.64
2022-08-16T00:48:28.997Z,75.20
2022-08-16T00:50:58.063Z,75.05
2022-08-16T00:53:30.822Z,74.65
2022-08-16T00:56:05.436Z,75.00
2022-08-16T00:58:34.983Z,75.35
2022-08-16T01:01:03.163Z,75.98
2022-08-16T01:03:36.223Z,75.98
2022-08-16T01:06:32.618Z,76.64
2022-08-16T01:08:53.956Z,76.94
2022-08-16T01:11:23.983Z,77.36
2022-08-16T01:13:55.029Z,77.63
2022-08-16T01:16:25.848Z,77.35
2022-08-16T01:19:05.668Z,77.95
2022-08-16T01:21:44.442Z,78.09
2022-08-16T01:24:51.525Z,78.64
2022-08-16T01:27:25.741Z,78.99
2022-08-16T01:30:21.790Z,79.41
2022-08-16T01:33:01.424Z,79.71
2022-08-16T01:35:39.849Z,79.81
2022-08-16T01:38:33.045Z,79.53
2022-08-16T01:41:19.920Z,79.15
2022-08-16T01:43:53.829Z,78.77
2022-08-16T01:46:39.153Z,78.22
2022-08-16T01:49:14.269Z,77.67
2022-08-16T01:51:44.601Z,77.84
2022-08-16T01:54:13.162Z,78.33
2022-08-16T01:56:40.486Z,79.06
2022-08-16T01:59:15.841Z,79.92
2022-08-16T02:01:52.556Z,80.21
2022-08-16T02:04:48.616Z,80.69
2022-08-16T02:07:15.847Z,81.01
2022-08-16T02:09:43.435Z,80.48
2022-08-16T02:12:50.273Z,80.48
2022-08-16T02:15:12.442Z,80.01
2022-08-16T02:17:39.008Z,79.60
2022-08-16T02:20:11.452Z,79.62
2022-08-16T02:22:39.438Z,79.32
2022-08-16T02:25:11.799Z,79.32
2022-08-16T02:27:43.561Z,79.17
2022-08-16T02:30:37.386Z,79.12
2022-08-16T02:33:07.517Z,78.85
2022-08-16T02:35:53.632Z,79.53
2022-08-16T02:38:22.550Z,80.46
2022-08-16T02:40:49.189Z,81.07
2022-08-16T02:43:16.215Z,81.59
2022-08-16T02:45:43.493Z,81.78
2022-08-16T02:48:29.246Z,81.96
2022-08-16T02:51:06.193Z,81.06
2022-08-16T02:53:38.825Z,81.07
2022-08-16T02:56:09.903Z,80.83
2022-08-16T02:58:36.953Z,80.09
2022-08-16T03:01:03.671Z,80.10
2022-08-16T03:04:29.799Z,79.88
2022-08-16T03:06:41.462Z,79.61
2022-08-16T03:09:11.830Z,79.39
2022-08-16T03:11:40.300Z,79.88
2022-08-16T03:14:07.832Z,79.78
2022-08-16T03:16:39.037Z,79.69
2022-08-16T03:19:09.493Z,80.00
2022-08-16T03:21:38.873Z,80.26
2022-08-16T03:24:28.211Z,80.30
2022-08-16T03:26:58.228Z,79.94
2022-08-16T03:29:29.987Z,80.55
2022-08-16T03:31:59.257Z,80.85
2022-08-16T03:34:26.270Z,81.27
2022-08-16T03:36:53.565Z,82.16
2022-08-16T03:39:20.718Z,82.94
2022-08-16T03:41:50.341Z,83.58
2022-08-16T03:44:43.312Z,84.13
2022-08-16T03:47:04.974Z,84.44
2022-08-16T03:49:37.346Z,84.42
2022-08-16T03:52:04.534Z,84.71
2022-08-16T03:54:31.182Z,85.01
2022-08-16T03:56:58.834Z,85.36
2022-08-16T03:59:25.762Z,85.42
2022-08-16T04:01:56.260Z,85.89
2022-08-16T04:04:30.982Z,85.96
2022-08-16T04:07:00.531Z,86.79
2022-08-16T04:09:35.233Z,86.29
2022-08-16T04:12:11.408Z,85.65
2022-08-16T04:14:51.722Z,86.41
2022-08-16T04:17:18.418Z,86.39
2022-08-16T04:19:46.512Z,86.96
2022-08-16T04:22:14.023Z,87.32
2022-08-16T04:24:54.814Z,87.29
2022-08-16T04:27:24.341Z,87.34
2022-08-16T04:29:52.130Z,87.38
2022-08-16T04:32:19.981Z,87.46
2022-08-16T04:34:46.694Z,87.80
2022-08-16T04:37:14.277Z,88.10
2022-08-16T04:39:47.065Z,88.68
2022-08-16T04:42:26.507Z,88.43
2022-08-16T04:44:58.417Z,88.28
2022-08-16T04:47:33.323Z,88.55
2022-08-16T04:50:07.865Z,88.47
2022-08-16T04:52:36.000Z,88.32
2022-08-16T04:55:09.735Z,87.67
2022-08-16T04:57:39.242Z,86.47
2022-08-16T05:00:31.634Z,85.18
2022-08-16T05:03:01.471Z,86.11
2022-08-16T05:05:36.832Z,87.16
2022-08-16T05:08:28.838Z,86.30
2022-08-16T05:10:59.965Z,86.22
2022-08-16T05:13:39.767Z,86.56
2022-08-16T05:16:11.844Z,86.90
2022-08-16T05:18:43.345Z,86.99
2022-08-16T05:21:11.234Z,86.57
2022-08-16T05:23:39.856Z,86.23
2022-08-16T05:26:06.707Z,85.98
2022-08-16T05:28:47.119Z,86.19
2022-08-16T05:31:22.000Z,86.25
2022-08-16T05:33:53.648Z,86.50
2022-08-16T05:36:21.740Z,86.87
2022-08-16T05:38:48.844Z,87.34
2022-08-16T05:41:16.799Z,87.25
2022-08-16T05:43:47.550Z,86.92
2022-08-16T05:46:30.037Z,87.33
2022-08-16T05:49:05.662Z,87.25
2022-08-16T05:51:39.853Z,86.56
2022-08-16T05:54:14.018Z,86.36
2022-08-16T05:56:43.013Z,85.56
2022-08-16T05:59:10.786Z,84.72
2022-08-16T06:01:39.087Z,83.31
2022-08-16T06:04:13.702Z,82.74
2022-08-16T06:06:57.436Z,81.71
2022-08-16T06:09:42.689Z,80.52
2022-08-16T06:12:26.915Z,80.21
2022-08-16T06:15:01.841Z,80.28
2022-08-16T06:17:43.935Z,80.20
2022-08-16T06:20:24.266Z,80.70
2022-08-16T06:22:59.088Z,79.69
2022-08-16T06:25:36.178Z,78.73
2022-08-16T06:28:08.631Z,78.26
2022-08-16T06:30:36.141Z,78.39
2022-08-16T06:33:19.776Z,78.06
2022-08-16T06:35:49.360Z,78.54
2022-08-16T06:38:32.460Z,76.18
2022-08-16T06:41:05.563Z,73.36
2022-08-16T06:43:33.147Z,72.60
2022-08-16T06:46:03.648Z,71.04
2022-08-16T06:48:32.654Z,71.52
2022-08-16T06:51:01.434Z,72.20
2022-08-16T06:53:29.750Z,72.59
2022-08-16T06:55:58.624Z,73.00
2022-08-16T06:58:31.501Z,71.44
2022-08-16T07:01:00.249Z,68.21
2022-08-16T07:03:32.176Z,66.61
2022-08-16T07:05:59.289Z,66.61
2022-08-16T07:08:27.738Z,67.53
2022-08-16T07:10:56.399Z,67.80
2022-08-16T07:13:57.903Z,67.59
2022-08-16T07:16:15.550Z,67.69
2022-08-16T07:18:58.967Z,66.05
2022-08-16T07:21:45.871Z,63.46
2022-08-16T07:24:29.894Z,67.15
2022-08-16T07:27:00.659Z,66.50
2022-08-16T07:29:27.825Z,67.01
2022-08-16T07:31:58.845Z,66.02
2022-08-16T07:34:35.164Z,66.11
2022-08-16T07:37:08.365Z,68.23
2022-08-16T07:39:43.340Z,65.62
2022-08-16T07:42:20.230Z,64.65
2022-08-16T07:44:52.772Z,64.46
2022-08-16T07:47:24.697Z,62.53
2022-08-16T07:49:58.853Z,61.53
2022-08-16T07:52:29.958Z,62.97
2022-08-16T07:54:58.041Z,62.21
2022-08-16T07:57:25.532Z,61.57
2022-08-16T07:59:53.063Z,63.00
2022-08-16T08:02:20.914Z,63.27
2022-08-16T08:04:48.475Z,60.80
2022-08-16T08:07:16.573Z,57.51
2022-08-16T08:09:44.054Z,56.23
2022-08-16T08:12:31.592Z,55.29
2022-08-16T08:14:59.683Z,56.57
2022-08-16T08:17:42.745Z,56.68
2022-08-16T08:20:13.345Z,54.66
2022-08-16T08:23:00.065Z,53.20
2022-08-16T08:25:53.978Z,53.41
2022-08-16T08:28:17.840Z,55.81
2022-08-16T08:30:51.032Z,57.17
2022-08-16T08:33:28.545Z,59.07
2022-08-16T08:35:57.924Z,58.82
2022-08-16T08:38:44.065Z,59.29
2022-08-16T08:41:12.777Z,59.32
2022-08-16T08:43:41.630Z,57.41
2022-08-16T08:46:18.174Z,57.08
2022-08-16T08:48:59.080Z,57.99
2022-08-16T08:51:31.804Z,55.37
2022-08-16T08:54:06.919Z,52.90
2022-08-16T08:56:36.275Z,51.17
2022-08-16T08:59:13.475Z,52.08
2022-08-16T09:01:57.087Z,50.62
2022-08-16T09:04:28.317Z,48.07
2022-08-16T09:06:55.982Z,49.53
2022-08-16T09:09:25.004Z,51.20
2022-08-16T09:11:53.532Z,52.96
2022-08-16T09:14:25.742Z,54.79
2022-08-16T09:17:04.095Z,55.71
2022-08-16T09:19:40.780Z,54.86
2022-08-16T09:22:20.990Z,53.91
2022-08-16T09:24:52.426Z,52.81
2022-08-16T09:27:25.067Z,53.53
2022-08-16T09:30:00.114Z,51.53
2022-08-16T09:32:31.159Z,51.23
2022-08-16T09:34:59.947Z,51.11
2022-08-16T09:37:29.490Z,51.18
2022-08-16T09:39:59.866Z,49.43
2022-08-16T09:42:28.727Z,50.26
2022-08-16T09:45:12.575Z,49.12
2022-08-16T09:47:56.922Z,50.68
2022-08-16T09:50:36.693Z,51.00
2022-08-16T09:53:15.465Z,51.02
2022-08-16T09:55:49.042Z,50.23
2022-08-16T09:58:41.279Z,48.70
2022-08-16T10:01:04.019Z,46.77
2022-08-16T10:03:31.713Z,46.31
2022-08-16T10:05:58.565Z,45.70
2022-08-16T10:08:27.479Z,45.31
2022-08-16T10:11:13.220Z,46.24
2022-08-16T10:13:41.592Z,47.25
2022-08-16T10:18:56.599Z,48.75
2022-08-16T10:21:23.940Z,49.00
2022-08-16T10:23:53.571Z,48.64
2022-08-16T10:27:16.798Z,49.16
2022-08-16T10:29:11.593Z,49.23
2022-08-16T10:31:44.362Z,49.91
2022-08-16T10:34:31.203Z,49.33
2022-08-16T10:37:00.664Z,49.28
2022-08-16T10:39:32.939Z,48.05
2022-08-16T10:42:07.993Z,47.19
2022-08-16T10:44:34.769Z,46.69
2022-08-16T10:47:02.238Z,45.59
2022-08-16T10:49:29.370Z,45.16
2022-08-16T10:52:02.426Z,45.66
2022-08-16T10:54:59.976Z,45.96
2022-08-16T10:57:33.148Z,48.04
2022-08-16T10:59:59.925Z,48.61
2022-08-16T11:02:58.197Z,49.15
2022-08-16T11:05:16.552Z,49.12
2022-08-16T11:07:52.114Z,49.67
2022-08-16T11:19:06.019Z,43.90
2022-08-16T11:22:23.085Z,43.84
2022-08-16T11:24:41.227Z,43.98
2022-08-16T11:27:20.125Z,44.29
2022-08-16T11:29:49.267Z,43.56
2022-08-16T11:32:20.277Z,43.85
2022-08-16T11:35:15.547Z,44.78
2022-08-16T11:40:52.767Z,43.65
2022-08-16T11:43:23.571Z,42.18
2022-08-16T11:45:53.799Z,41.67
2022-08-16T11:48:21.844Z,41.91
2022-08-16T11:50:48.454Z,42.24
2022-08-16T11:53:17.035Z,43.09
2022-08-16T11:55:44.244Z,44.24
2022-08-16T11:58:14.353Z,44.75
2022-08-16T12:00:51.375Z,43.47
2022-08-16T12:03:24.959Z,43.35
2022-08-16T12:05:59.586Z,41.95
2022-08-16T12:08:27.233Z,41.76
2022-08-16T12:10:54.499Z,41.08
2022-08-16T12:13:26.561Z,40.25
2022-08-16T12:15:54.553Z,39.96
2022-08-16T12:18:21.554Z,40.53
2022-08-16T12:20:48.289Z,40.55
2022-08-16T12:23:15.211Z,40.94
2022-08-16T12:25:44.140Z,41.13
2022-08-16T12:28:10.853Z,41.18
2022-08-16T12:30:42.871Z,40.85
2022-08-16T12:33:12.269Z,40.33
2022-08-16T12:35:40.634Z,40.06
2022-08-16T12:38:35.771Z,38.88
2022-08-16T12:40:57.047Z,38.43
2022-08-16T12:43:25.477Z,39.43
2022-08-16T12:45:55.150Z,38.84
2022-08-16T12:48:45.231Z,37.90
2022-08-16T12:51:19.861Z,38.10
2022-08-16T12:53:52.664Z,38.64
2022-08-16T12:56:21.785Z,38.08
2022-08-16T12:58:53.276Z,37.76
2022-08-16T13:01:26.768Z,37.97
2022-08-16T13:04:11.822Z,36.95
2022-08-16T13:06:44.294Z,35.94
2022-08-16T13:09:23.730Z,36.11
2022-08-16T13:12:07.265Z,36.07
2022-08-16T13:14:41.213Z,36.89
2022-08-16T13:17:17.140Z,36.41
2022-08-16T13:20:07.706Z,36.77
2022-08-16T13:22:42.912Z,36.52
2022-08-16T13:25:18.878Z,36.08
2022-08-16T13:28:15.035Z,36.78
2022-08-16T13:30:52.316Z,36.14
2022-08-16T13:33:29.250Z,36.46
2022-08-16T13:35:59.176Z,35.58
2022-08-16T13:38:30.220Z,35.50
2022-08-16T13:40:59.898Z,34.81
2022-08-16T13:43:32.599Z,34.33
2022-08-16T13:46:04.622Z,35.08
2022-08-16T13:48:42.673Z,33.93
2022-08-16T13:51:17.006Z,33.87
2022-08-16T13:53:59.060Z,34.42
2022-08-16T13:56:34.227Z,33.93
2022-08-16T13:59:06.562Z,34.98
2022-08-16T14:01:47.065Z,34.71
2022-08-16T14:04:26.078Z,34.68
2022-08-16T14:06:54.683Z,34.74
2022-08-16T14:09:21.551Z,34.81
2022-08-16T14:11:49.523Z,33.90
2022-08-16T14:14:28.660Z,33.50
2022-08-16T14:17:01.046Z,33.58
2022-08-16T14:19:29.569Z,33.84
2022-08-16T14:22:14.955Z,32.07
2022-08-16T14:24:47.083Z,31.91
2022-08-16T14:27:18.331Z,31.76
2022-08-16T14:29:49.256Z,31.85
2022-08-16T14:32:32.600Z,32.23
2022-08-16T14:35:07.273Z,32.23
2022-08-16T14:37:34.579Z,32.67
2022-08-16T14:40:01.324Z,33.17
2022-08-16T14:42:30.020Z,32.77
2022-08-16T14:44:57.754Z,33.26
2022-08-16T14:47:34.338Z,33.30
2022-08-16T14:50:01.970Z,33.70
2022-08-16T14:52:54.061Z,33.94
2022-08-16T14:55:15.945Z,33.69
2022-08-16T14:57:43.459Z,33.62
2022-08-16T15:00:13.175Z,33.55
2022-08-16T15:02:42.629Z,33.50
2022-08-16T15:05:12.690Z,34.08
2022-08-16T15:07:42.137Z,33.44
2022-08-16T15:10:21.497Z,32.68
2022-08-16T15:12:55.471Z,33.45
2022-08-16T15:15:24.831Z,32.85
2022-08-16T15:17:56.081Z,32.64
2022-08-16T15:20:26.805Z,32.84
2022-08-16T15:22:54.667Z,31.95
2022-08-16T15:25:32.011Z,32.66
2022-08-16T15:28:04.708Z,31.03
2022-08-16T15:30:59.568Z,31.59
2022-08-16T15:33:26.894Z,31.97
2022-08-16T15:35:55.504Z,31.79
2022-08-16T15:38:55.179Z,32.45
2022-08-16T15:41:27.062Z,33.17
2022-08-16T15:44:05.413Z,32.80
2022-08-16T15:46:54.931Z,33.38
2022-08-16T15:49:25.323Z,32.93
2022-08-16T15:52:14.959Z,33.34
2022-08-16T15:54:53.146Z,33.65
2022-08-16T15:57:27.144Z,33.62
2022-08-16T15:59:56.316Z,33.87
2022-08-16T16:02:33.454Z,32.81
2022-08-16T16:05:04.246Z,33.08
2022-08-16T16:07:31.956Z,33.27
2022-08-16T16:10:00.463Z,32.74
2022-08-16T16:12:51.689Z,33.04
2022-08-16T16:15:20.280Z,33.49
2022-08-16T16:17:51.090Z,33.50
2022-08-16T16:20:24.386Z,33.69
2022-08-16T16:22:56.607Z,33.26
2022-08-16T16:25:24.413Z,33.01
2022-08-16T16:27:55.894Z,32.93
2022-08-16T16:30:37.154Z,32.73
2022-08-16T16:33:21.033Z,32.51
2022-08-16T16:35:55.579Z,32.24
2022-08-16T16:38:28.739Z,32.78
2022-08-16T16:40:55.637Z,32.71
2022-08-16T16:43:26.096Z,33.00
2022-08-16T16:45:58.801Z,32.67
2022-08-16T16:48:29.705Z,32.76
2022-08-16T16:51:09.083Z,32.66
2022-08-16T16:53:42.123Z,32.55
2022-08-16T16:56:19.654Z,32.65
2022-08-16T16:58:56.417Z,33.01
2022-08-16T17:01:41.173Z,32.79
2022-08-16T17:04:27.481Z,32.58
2022-08-16T17:06:58.988Z,33.25
2022-08-16T17:09:25.948Z,33.07
2022-08-16T17:11:55.281Z,33.34
2022-08-16T17:14:42.629Z,33.01
2022-08-16T17:17:13.177Z,33.39
2022-08-16T17:19:41.915Z,32.60
2022-08-16T17:22:15.609Z,32.93
2022-08-16T17:24:50.307Z,32.88
2022-08-16T17:27:32.642Z,33.15
2022-08-16T17:30:29.419Z,33.88
2022-08-16T17:33:11.344Z,34.46
2022-08-16T17:35:55.123Z,35.61
2022-08-16T17:38:38.561Z,35.91
2022-08-16T17:41:07.949Z,36.44
2022-08-16T17:43:37.939Z,36.05
2022-08-16T17:46:50.818Z,35.74
2022-08-16T17:48:59.947Z,35.21
2022-08-16T17:51:28.606Z,35.14
2022-08-16T17:53:55.622Z,35.76
2022-08-16T17:56:22.471Z,35.55
2022-08-16T17:58:49.024Z,36.24
2022-08-16T18:01:16.079Z,36.55
2022-08-16T18:04:08.833Z,36.41
2022-08-16T18:06:29.567Z,36.86
2022-08-16T18:09:02.507Z,36.73
2022-08-16T18:11:33.804Z,37.28
2022-08-16T18:14:00.493Z,37.38
2022-08-16T18:16:27.107Z,37.63
2022-08-16T18:18:53.753Z,37.82
2022-08-16T18:21:38.954Z,37.15
2022-08-16T18:24:06.036Z,37.21
2022-08-16T18:26:33.036Z,37.53
2022-08-16T18:28:59.733Z,37.70
2022-08-16T18:31:28.890Z,37.76
2022-08-16T18:33:56.083Z,37.96
2022-08-16T18:36:23.928Z,38.10
2022-08-16T18:38:52.184Z,37.98
2022-08-16T18:41:21.152Z,38.48
2022-08-16T18:44:22.481Z,38.44
2022-08-16T18:46:34.463Z,38.85
2022-08-16T18:49:01.100Z,39.14
2022-08-16T18:51:27.730Z,39.13
2022-08-16T18:53:54.320Z,39.22
2022-08-16T18:56:21.321Z,39.21
2022-08-16T18:58:47.901Z,39.00
2022-08-16T19:01:14.616Z,39.47
2022-08-16T19:03:41.404Z,39.43
2022-08-16T19:06:13.656Z,39.80
2022-08-16T19:08:42.443Z,39.71
2022-08-16T19:11:20.042Z,39.74
2022-08-16T19:13:46.683Z,40.28
2022-08-16T19:16:14.537Z,40.42
2022-08-16T19:18:41.381Z,40.72
2022-08-16T19:21:09.504Z,41.12
2022-08-16T19:23:38.447Z,41.57
2022-08-16T19:26:11.041Z,41.49
2022-08-16T19:28:59.089Z,42.36
2022-08-16T19:31:32.639Z,42.39
2022-08-16T19:34:00.547Z,42.72
2022-08-16T19:36:35.729Z,42.61
2022-08-16T19:39:07.142Z,42.85
2022-08-16T19:41:37.759Z,43.17
2022-08-16T19:44:05.663Z,43.68
2022-08-16T19:46:32.593Z,43.63
2022-08-16T19:49:00.626Z,44.06
2022-08-16T19:51:27.691Z,44.65
2022-08-16T19:53:54.770Z,45.05
2022-08-16T19:56:23.794Z,45.28
2022-08-16T19:59:17.611Z,45.70
2022-08-16T20:01:41.979Z,45.81
2022-08-16T20:04:12.250Z,45.90
2022-08-16T20:06:39.524Z,46.23
2022-08-16T20:09:07.052Z,46.01
2022-08-16T20:11:34.928Z,45.91
2022-08-16T20:14:02.536Z,46.42
2022-08-16T20:16:29.594Z,46.37
2022-08-16T20:18:56.206Z,46.51
2022-08-16T20:21:22.865Z,46.65
2022-08-16T20:23:49.589Z,46.36
2022-08-16T20:26:16.289Z,46.80
2022-08-16T20:28:53.947Z,46.72
2022-08-16T20:31:23.196Z,46.70
2022-08-16T20:33:51.805Z,46.64
2022-08-16T20:36:18.374Z,46.83
2022-08-16T20:38:47.431Z,46.99
2022-08-16T20:41:15.224Z,47.05
2022-08-16T20:43:42.028Z,46.88
2022-08-16T20:46:08.718Z,47.25
2022-08-16T20:48:35.511Z,47.04
2022-08-16T20:51:02.150Z,47.28
2022-08-16T20:53:28.830Z,47.42
2022-08-16T20:55:55.464Z,47.79
2022-08-16T20:58:21.971Z,48.05
2022-08-16T21:00:48.609Z,47.97
2022-08-16T21:03:15.207Z,47.88
2022-08-16T21:05:43.833Z,47.85
2022-08-16T21:08:51.117Z,48.27
2022-08-16T21:10:57.763Z,48.12
2022-08-16T21:13:30.784Z,48.14
2022-08-16T21:15:58.755Z,48.08
2022-08-16T21:18:25.496Z,48.10
2022-08-16T21:20:52.546Z,48.42
2022-08-16T21:23:19.682Z,48.43
2022-08-16T21:25:58.423Z,48.35
2022-08-16T21:28:41.749Z,48.72
2022-08-16T21:31:11.412Z,48.87
2022-08-16T21:33:38.852Z,49.09
2022-08-16T21:36:05.786Z,49.33
2022-08-16T21:38:32.379Z,49.55
2022-08-16T21:41:00.287Z,49.81
2022-08-16T21:43:31.652Z,50.31
2022-08-16T21:45:58.819Z,50.02
2022-08-16T21:48:35.142Z,50.03
2022-08-16T21:51:14.722Z,49.90
2022-08-16T21:53:43.350Z,50.24
2022-08-16T21:56:16.798Z,50.36
2022-08-16T21:58:44.718Z,50.31
2022-08-16T22:01:11.485Z,50.24
2022-08-16T22:03:38.094Z,50.32
2022-08-16T22:06:13.278Z,51.11
2022-08-16T22:08:50.148Z,50.64
2022-08-16T22:11:19.627Z,50.30
2022-08-16T22:13:51.494Z,50.31
2022-08-16T22:16:26.094Z,50.45
2022-08-16T22:18:52.916Z,50.29
2022-08-16T22:21:19.784Z,50.65
2022-08-16T22:23:56.701Z,50.87
2022-08-16T22:26:31.060Z,51.23
2022-08-16T22:29:04.580Z,51.10
2022-08-16T22:31:31.411Z,51.41
2022-08-16T22:33:58.163Z,51.49
2022-08-16T22:36:28.551Z,51.52
2022-08-16T22:39:00.688Z,51.59
2022-08-16T22:41:28.848Z,51.74
2022-08-16T22:43:55.712Z,51.79
2022-08-16T22:46:22.576Z,52.05
2022-08-16T22:48:50.537Z,52.02
2022-08-16T22:51:19.341Z,52.10
2022-08-16T22:53:46.077Z,51.70
2022-08-16T22:56:15.108Z,51.88
2022-08-16T22:58:41.910Z,52.07
2022-08-16T23:01:09.922Z,52.36
2022-08-16T23:03:37.868Z,52.40
2022-08-16T23:06:06.677Z,52.52
2022-08-16T23:08:40.648Z,52.77
2022-08-16T23:11:10.590Z,53.07
2022-08-16T23:13:37.659Z,53.10
2022-08-16T23:16:10.843Z,53.38
2022-08-16T23:18:39.162Z,53.52
2022-08-16T23:21:09.376Z,52.88
2022-08-16T23:23:37.255Z,53.81
2022-08-16T23:26:46.565Z,53.86
2022-08-16T23:28:51.950Z,54.06
2022-08-16T23:31:18.740Z,54.29
2022-08-16T23:33:45.979Z,54.24
2022-08-16T23:36:13.038Z,54.00
2022-08-16T23:38:39.839Z,54.43
2022-08-16T23:41:11.375Z,54.90
2022-08-16T23:43:41.841Z,54.88
2022-08-16T23:46:11.788Z,55.14
2022-08-16T23:49:56.907Z,55.46
2022-08-16T23:51:24.897Z,55.56
2022-08-16T23:53:51.474Z,55.68
2022-08-16T23:56:20.368Z,55.81
2022-08-16T23:58:49.328Z,55.86
